Time;durP1;ratioP1;P1;durP2;ratioP2;P2;SDS_P1;SDS_P2;PMS_P1;PMS_P2;Temp;Humidity;BMP_temperature;BMP_pressure;BME280_temperature;BME280_humidity;BME280_pressure;Samples;Min_cycle;Max_cycle;Signal;HPM_P1;HPM_P2
2022/03/24 00:01:40;;;;;;;3.00;2.90;;;22.50;47.50;;;;;;5052027;28;20572;-65
2022/03/24 00:04:07;;;;;;;2.93;2.83;;;22.40;49.90;;;;;;5036528;28;20345;-65
2022/03/24 00:06:33;;;;;;;2.80;2.70;;;;;;;;;;5051857;28;20472;-65
2022/03/24 00:08:59;;;;;;;3.60;3.40;;;;;;;;;;5051987;28;20423;-64
2022/03/24 00:11:25;;;;;;;2.47;2.37;;;;;;;;;;5051950;28;20493;-65
2022/03/24 00:13:51;;;;;;;3.37;3.07;;;;;;;;;;5039264;28;20533;-64
2022/03/24 00:16:19;;;;;;;3.67;3.40;;;22.40;48.50;;;;;;5034437;28;20789;-65
2022/03/24 00:18:46;;;;;;;2.47;2.37;;;22.40;48.50;;;;;;5052043;28;20781;-65
2022/03/24 00:21:12;;;;;;;2.40;2.30;;;;;;;;;;5051706;28;20414;-64
2022/03/24 00:23:38;;;;;;;1.90;1.80;;;;;;;;;;5041551;28;20467;-65
2022/03/24 00:26:04;;;;;;;1.80;1.70;;;;;;;;;;5032017;28;20416;-64
2022/03/24 00:28:31;;;;;;;2.07;1.97;;;22.40;47.80;;;;;;5031812;28;20578;-64
2022/03/24 00:30:57;;;;;;;1.60;1.60;;;;;;;;;;5031724;28;20407;-65
2022/03/24 00:33:24;;;;;;;2.43;2.33;;;22.30;54.50;;;;;;5039492;28;20442;-65
2022/03/24 00:35:52;;;;;;;2.73;2.63;;;23.10;47.80;;;;;;5051704;28;20411;-65
2022/03/24 00:38:18;;;;;;;2.83;2.73;;;22.20;67.50;;;;;;5051601;28;20881;-64
2022/03/24 00:40:44;;;;;;;2.97;2.87;;;22.30;67.60;;;;;;5046188;28;20903;-65
2022/03/24 00:43:10;;;;;;;3.43;3.33;;;21.80;48.40;;;;;;5037297;28;20199;-65
2022/03/24 00:45:36;;;;;;;2.87;2.67;;;22.40;47.60;;;;;;5051516;28;20445;-64
2022/03/24 00:48:02;;;;;;;3.77;3.27;;;;;;;;;;5051399;28;20490;-65
2022/03/24 00:50:28;;;;;;;2.73;2.60;;;22.30;64.30;;;;;;5051248;28;20176;-64
2022/03/24 00:52:54;;;;;;;2.90;2.70;;;;;;;;;;5047742;28;20565;-65
2022/03/24 00:55:20;;;;;;;3.33;1.90;;;22.40;48.20;;;;;;5031513;28;20180;-66
2022/03/24 00:57:49;;;;;;;1.83;1.73;;;22.50;67.50;;;;;;5031573;28;20411;-65
2022/03/24 01:00:18;;;;;;;2.77;2.67;;;22.40;48.50;;;;;;5031306;28;20533;-64
2022/03/24 01:02:49;;;;;;;2.10;1.97;;;22.40;48.70;;;;;;5032498;28;20431;-66
2022/03/24 01:05:16;;;;;;;2.23;2.13;;;22.50;67.60;;;;;;5041551;28;20427;-65
2022/03/24 01:07:42;;;;;;;2.47;2.33;;;22.50;71.10;;;;;;5051345;28;20528;-65
2022/03/24 01:10:11;;;;;;;2.50;2.40;;;22.20;50.40;;;;;;5032901;28;20572;-64
2022/03/24 01:12:39;;;;;;;2.60;2.50;;;;;;;;;;5035816;28;20425;-65
2022/03/24 01:15:07;;;;;;;4.80;2.77;;;22.20;67.30;;;;;;5051713;28;20427;-65
2022/03/24 01:17:34;;;;;;;2.60;2.50;;;22.30;50.40;;;;;;5050811;28;20433;-64
2022/03/24 01:20:00;;;;;;;2.10;1.93;;;22.40;57.10;;;;;;5051124;28;20787;-64
2022/03/24 01:22:26;;;;;;;1.70;1.60;;;22.60;69.00;;;;;;5043371;28;20591;-64
2022/03/24 01:24:52;;;;;;;2.40;2.30;;;;;;;;;;5031071;28;20467;-64
2022/03/24 01:27:18;;;;;;;2.60;2.50;;;;;;;;;;5031079;28;20497;-65
2022/03/24 01:29:44;;;;;;;2.10;2.00;;;22.20;63.30;;;;;;5031041;28;21044;-64
2022/03/24 01:32:10;;;;;;;2.80;2.27;;;22.20;61.80;;;;;;5034569;28;20486;-65
2022/03/24 01:34:37;;;;;;;1.90;1.80;;;;;;;;;;5051227;28;20282;-64
2022/03/24 01:37:03;;;;;;;2.10;2.00;;;;;;;;;;5039191;28;20427;-64
2022/03/24 01:39:29;;;;;;;2.30;2.20;;;22.20;71.20;;;;;;5030738;28;20470;-64
2022/03/24 01:41:55;;;;;;;2.23;2.13;;;;;;;;;;5032217;28;20475;-64
2022/03/24 01:44:21;;;;;;;2.30;2.20;;;;;;;;;;5050712;28;20564;-64
2022/03/24 01:47:05;;;;;;;2.53;2.33;;;22.40;46.80;;;;;;5050351;28;20458;-64
2022/03/24 01:49:36;;;;;;;1.93;1.83;;;22.30;48.70;;;;;;5050254;28;20899;-64
2022/03/24 01:52:10;;;;;;;2.27;2.17;;;22.40;48.70;;;;;;5047939;28;20411;-64
2022/03/24 01:54:39;;;;;;;2.20;2.10;;;22.40;48.60;;;;;;5030656;28;20446;-64
2022/03/24 01:57:07;;;;;;;1.67;1.57;;;22.20;48.50;;;;;;5030592;28;20408;-64
2022/03/24 01:59:35;;;;;;;2.10;2.00;;;22.30;48.50;;;;;;5030226;28;20502;-64
2022/03/24 02:02:01;;;;;;;2.53;2.43;;;22.00;67.40;;;;;;5031875;28;20811;-64
2022/03/24 02:04:26;;;;;;;1.97;1.87;;;22.30;67.40;;;;;;5035459;28;20455;-65
2022/03/24 02:06:52;;;;;;;2.47;2.27;;;;;;;;;;5029983;28;20212;-64
2022/03/24 02:09:18;;;;;;;2.33;2.23;;;;;;;;;;5030858;28;20187;-64
2022/03/24 02:11:45;;;;;;;2.17;2.07;;;;;;;;;;5029682;28;20414;-64
2022/03/24 02:14:11;;;;;;;3.00;2.60;;;22.20;67.10;;;;;;5040976;28;20504;-64
2022/03/24 02:16:39;;;;;;;3.03;2.83;;;22.40;48.50;;;;;;5049956;28;20406;-64
2022/03/24 02:19:10;;;;;;;3.17;2.93;;;22.40;56.50;;;;;;5049524;28;20441;-64
2022/03/24 02:21:36;;;;;;;2.60;2.50;;;;;;;;;;5049601;28;20488;-64
2022/03/24 02:24:02;;;;;;;2.50;2.40;;;;;;;;;;5048843;28;20939;-64
2022/03/24 02:26:28;;;;;;;3.23;3.03;;;22.40;53.70;;;;;;5049499;28;20456;-64
2022/03/24 02:28:56;;;;;;;3.87;3.67;;;22.50;67.80;;;;;;5032531;28;20423;-64
2022/03/24 02:31:23;;;;;;;2.53;2.43;;;;;;;;;;5029732;28;20426;-64
2022/03/24 02:34:37;;;;;;;2.77;2.67;;;;;;;;;;5034852;28;20495;-64
2022/03/24 02:36:38;;;;;;;2.37;2.27;;;22.30;46.70;;;;;;5049475;28;20482;-65
2022/03/24 02:39:04;;;;;;;2.23;1.93;;;;;;;;;;5049531;28;20414;-64
2022/03/24 02:41:31;;;;;;;2.77;2.57;;;22.20;67.10;;;;;;5049673;28;20841;-64
2022/03/24 02:43:57;;;;;;;2.00;1.90;;;23.10;52.60;;;;;;5043328;28;20454;-64
2022/03/24 02:46:23;;;;;;;2.03;1.93;;;;;;;;;;5029492;28;20435;-64
2022/03/24 02:48:49;;;;;;;2.30;2.20;;;;;;;;;;5027294;28;20447;-64
2022/03/24 02:51:15;;;;;;;2.30;2.20;;;;;;;;;;5029063;28;20981;-65
2022/03/24 02:53:41;;;;;;;1.87;1.87;;;;;;;;;;5032874;28;20452;-64
2022/03/24 02:56:07;;;;;;;2.00;1.80;;;22.20;67.60;;;;;;5049373;28;20406;-64
2022/03/24 02:58:33;;;;;;;1.97;1.87;;;;;;;;;;5049453;28;20863;-64
2022/03/24 03:00:59;;;;;;;1.90;1.80;;;;;;;;;;5049435;28;20234;-64
2022/03/24 03:03:24;;;;;;;2.50;2.40;;;22.20;63.20;;;;;;5044349;28;20447;-64
2022/03/24 03:05:50;;;;;;;2.23;2.17;;;22.10;53.00;;;;;;5029391;28;20431;-65
2022/03/24 03:08:19;;;;;;;2.43;2.33;;;;;;;;;;5029278;28;20204;-65
2022/03/24 03:10:45;;;;;;;2.20;2.10;;;;;;;;;;5029278;28;20408;-64
2022/03/24 03:13:10;;;;;;;2.20;2.10;;;22.30;67.40;;;;;;5030745;28;20478;-65
2022/03/24 03:15:36;;;;;;;2.20;2.07;;;;;;;;;;5049347;28;20406;-65
2022/03/24 03:18:02;;;;;;;2.00;1.93;;;;;;;;;;5049132;28;20538;-65
2022/03/24 03:20:28;;;;;;;2.10;2.00;;;22.30;67.10;;;;;;5048849;28;20447;-64
2022/03/24 03:22:55;;;;;;;3.77;2.40;;;;;;;;;;5048360;28;20468;-65
2022/03/24 03:25:21;;;;;;;1.90;1.80;;;22.50;67.80;;;;;;5029707;28;20455;-64
2022/03/24 03:27:47;;;;;;;2.37;2.27;;;22.40;67.40;;;;;;5029207;28;20483;-64
2022/03/24 03:30:13;;;;;;;2.53;2.43;;;22.30;67.90;;;;;;5028863;28;20842;-64
2022/03/24 03:32:40;;;;;;;2.03;1.93;;;22.40;69.30;;;;;;5029119;28;20169;-65
2022/03/24 03:35:06;;;;;;;1.60;1.60;;;;;;;;;;5045351;28;20525;-64
2022/03/24 03:37:32;;;;;;;2.27;2.17;;;22.30;48.40;;;;;;5048988;28;20421;-65
2022/03/24 03:39:58;;;;;;;2.40;2.30;;;;;;;;;;5048863;28;20567;-64
2022/03/24 03:42:24;;;;;;;2.33;2.23;;;;;;;;;;5048275;28;20918;-65
2022/03/24 03:44:50;;;;;;;1.50;1.40;;;22.10;69.50;;;;;;5047096;28;20796;-64
2022/03/24 03:47:16;;;;;;;2.40;2.30;;;22.40;67.90;;;;;;5048714;28;20454;-65
2022/03/24 03:49:42;;;;;;;1.77;1.77;;;;;;;;;;5040789;28;20177;-65
2022/03/24 03:52:08;;;;;;;2.30;2.13;;;;;;;;;;5028471;28;20544;-64
2022/03/24 03:54:33;;;;;;;2.23;2.13;;;22.20;67.70;;;;;;5039960;28;20449;-64
2022/03/24 03:56:59;;;;;;;2.17;2.07;;;;;;;;;;5048689;28;20411;-64
2022/03/24 03:59:25;;;;;;;2.20;2.10;;;22.10;67.10;;;;;;5050607;28;20176;-64
2022/03/24 04:01:51;;;;;;;1.80;1.70;;;;;;;;;;5051990;28;20440;-64
2022/03/24 04:04:16;;;;;;;2.13;2.03;;;;;;;;;;5042008;28;20207;-64
2022/03/24 04:06:42;;;;;;;2.13;2.03;;;22.10;62.60;;;;;;5032316;28;20455;-64
2022/03/24 04:09:08;;;;;;;2.57;2.47;;;22.10;67.80;;;;;;5032139;28;20524;-65
2022/03/24 04:11:35;;;;;;;1.63;1.63;;;;;;;;;;5032555;28;20169;-65
2022/03/24 04:14:01;;;;;;;2.07;1.97;;;;;;;;;;5038598;28;20211;-64
2022/03/24 04:16:26;;;;;;;2.30;2.20;;;22.20;67.00;;;;;;5049087;28;20448;-65
2022/03/24 04:18:52;;;;;;;2.50;2.40;;;22.40;67.20;;;;;;5048304;28;20450;-64
2022/03/24 04:21:19;;;;;;;3.03;2.93;;;;;;;;;;5047790;28;20660;-65
2022/03/24 04:23:46;;;;;;;3.27;3.13;;;22.40;65.20;;;;;;5051103;28;20301;-65
2022/03/24 04:26:12;;;;;;;2.90;2.80;;;22.30;65.60;;;;;;5044520;28;20444;-65
2022/03/24 04:28:38;;;;;;;3.40;3.17;;;22.20;69.80;;;;;;5051764;28;20505;-64
2022/03/24 04:31:05;;;;;;;3.07;2.87;;;;;;;;;;5051807;28;20430;-64
2022/03/24 04:33:31;;;;;;;3.17;2.97;;;;;;;;;;5045787;28;20447;-65
2022/03/24 04:36:00;;;;;;;4.60;2.83;;;;;;;;;;5032104;28;20411;-65
2022/03/24 04:38:26;;;;;;;3.23;3.00;;;;;;;;;;5032018;28;20403;-64
2022/03/24 04:40:52;;;;;;;4.30;3.03;;;;;;;;;;5031424;28;20438;-64
2022/03/24 04:43:19;;;;;;;3.23;2.93;;;;;;;;;;5033096;28;20725;-65
2022/03/24 04:45:45;;;;;;;2.27;2.17;;;21.90;65.60;;;;;;5038530;28;20620;-65
2022/03/24 04:48:10;;;;;;;3.03;2.93;;;22.20;65.70;;;;;;5050229;28;20453;-66
2022/03/24 04:50:37;;;;;;;2.77;2.67;;;22.00;65.60;;;;;;5049996;28;20180;-65
2022/03/24 04:53:03;;;;;;;4.20;3.90;;;;;;;;;;5050866;28;20176;-65
2022/03/24 04:55:29;;;;;;;4.93;4.47;;;22.20;53.70;;;;;;5050854;28;20418;-65
2022/03/24 04:57:54;;;;;;;3.67;3.47;;;22.10;67.90;;;;;;5051139;28;21187;-64
2022/03/24 05:00:20;;;;;;;5.60;5.20;;;22.20;66.90;;;;;;5037392;28;20188;-65
2022/03/24 05:02:49;;;;;;;4.70;4.40;;;22.20;65.30;;;;;;5032181;28;20279;-65
2022/03/24 05:05:15;;;;;;;4.80;4.50;;;;;;;;;;5043206;28;20184;-65
2022/03/24 05:07:42;;;;;;;5.17;4.80;;;22.10;46.50;;;;;;5044421;28;20721;-66
2022/03/24 05:10:08;;;;;;;5.80;5.40;;;21.90;47.80;;;;;;5042778;28;20411;-65
2022/03/24 05:12:34;;;;;;;5.27;4.83;;;;;;;;;;5066021;28;20417;-65
2022/03/24 05:15:00;;;;;;;4.10;3.90;;;22.40;65.40;;;;;;5063328;28;20930;-65
2022/03/24 05:17:26;;;;;;;4.07;3.77;;;;;;;;;;5059392;28;20509;-65
2022/03/24 05:19:52;;;;;;;5.77;3.40;;;;;;;;;;5050511;28;20211;-65
2022/03/24 05:22:18;;;;;;;4.23;3.23;;;;;;;;;;5070681;28;20431;-65
2022/03/24 05:24:44;;;;;;;4.17;2.97;;;;;;;;;;5062928;28;20433;-65
2022/03/24 05:27:10;;;;;;;4.53;3.63;;;;;;;;;;5070303;28;20467;-65
2022/03/24 05:29:37;;;;;;;4.70;4.30;;;;;;;;;;5070384;28;20898;-65
2022/03/24 05:32:04;;;;;;;7.57;6.73;;;;;;;;;;5070531;28;20409;-65
2022/03/24 05:34:30;;;;;;;6.60;6.00;;;22.00;69.40;;;;;;5070433;28;20422;-65
2022/03/24 05:36:56;;;;;;;4.53;3.70;;;22.10;65.40;;;;;;5070388;28;20409;-65
2022/03/24 05:39:22;;;;;;;4.77;4.20;;;22.20;66.70;;;;;;5070251;28;20940;-65
2022/03/24 05:41:47;;;;;;;6.00;4.30;;;22.20;66.10;;;;;;5062776;28;20578;-65
2022/03/24 05:44:13;;;;;;;6.73;6.10;;;22.10;65.90;;;;;;5070219;28;20206;-65
2022/03/24 05:46:44;;;;;;;5.40;5.03;;;22.00;47.20;;;;;;5070531;28;20183;-65
2022/03/24 05:49:14;;;;;;;4.83;4.00;;;22.30;50.20;;;;;;5070503;28;20605;-65
2022/03/24 05:51:43;;;;;;;4.67;4.10;;;22.40;57.70;;;;;;5070314;28;20492;-65
2022/03/24 05:54:13;;;;;;;9.73;7.60;;;22.10;46.30;;;;;;5070172;28;20421;-65
2022/03/24 05:56:40;;;;;;;6.30;4.00;;;21.90;66.00;;;;;;5068788;28;20429;-65
2022/03/24 05:59:06;;;;;;;6.27;5.17;;;22.20;71.10;;;;;;5070069;28;20413;-65
2022/03/24 06:01:33;;;;;;;4.73;4.40;;;21.90;68.70;;;;;;5069968;28;20421;-65
2022/03/24 06:03:59;;;;;;;4.30;4.00;;;22.10;61.80;;;;;;5070018;28;20191;-65
2022/03/24 06:06:28;;;;;;;4.50;4.10;;;21.90;48.70;;;;;;5066949;28;20410;-66
2022/03/24 06:08:57;;;;;;;6.33;4.33;;;22.10;47.30;;;;;;5049854;28;20744;-65
2022/03/24 06:11:24;;;;;;;4.87;4.33;;;22.10;66.10;;;;;;5060894;28;20456;-64
2022/03/24 06:13:50;;;;;;;6.93;5.00;;;;;;;;;;5070013;28;20524;-65
2022/03/24 06:16:15;;;;;;;6.33;4.20;;;19.80;65.10;;;;;;5051326;28;20417;-65
2022/03/24 06:18:42;;;;;;;5.00;4.70;;;22.10;46.30;;;;;;5051254;28;20434;-65
2022/03/24 06:21:08;;;;;;;6.80;4.50;;;22.80;47.70;;;;;;5060124;28;20183;-66
2022/03/24 06:23:34;;;;;;;3.87;3.57;;;;;;;;;;5069242;28;20453;-65
2022/03/24 06:26:00;;;;;;;3.67;2.93;;;;;;;;;;5069544;28;20415;-65
2022/03/24 06:28:26;;;;;;;3.73;3.53;;;22.10;67.80;;;;;;5069552;28;20468;-65
2022/03/24 06:30:52;;;;;;;3.57;3.13;;;22.00;67.70;;;;;;5069650;28;20859;-65
2022/03/24 06:33:18;;;;;;;4.33;3.30;;;21.90;68.10;;;;;;5069367;28;20624;-65
2022/03/24 06:35:44;;;;;;;6.93;4.13;;;22.00;48.90;;;;;;5059282;28;20195;-65
2022/03/24 06:38:11;;;;;;;4.50;4.00;;;22.00;66.50;;;;;;5049169;28;20502;-65
2022/03/24 06:40:38;;;;;;;4.10;3.83;;;22.00;54.40;;;;;;5045630;28;20427;-65
2022/03/24 06:43:05;;;;;;;7.03;3.30;;;22.10;47.30;;;;;;5049422;28;20437;-65
2022/03/24 06:45:31;;;;;;;7.13;5.03;;;;;;;;;;5049495;28;20415;-65
2022/03/24 06:47:57;;;;;;;4.70;4.40;;;;;;;;;;5049359;28;20960;-66
2022/03/24 06:50:23;;;;;;;5.10;4.80;;;;;;;;;;5049273;28;20503;-65
2022/03/24 06:52:49;;;;;;;10.40;8.17;;;;;;;;;;5049147;28;20406;-66
2022/03/24 06:55:14;;;;;;;6.10;3.90;;;21.60;65.90;;;;;;5049425;28;20887;-65
2022/03/24 06:57:41;;;;;;;4.73;4.43;;;21.90;66.40;;;;;;5049282;28;20406;-65
2022/03/24 07:00:09;;;;;;;7.03;6.40;;;22.30;47.70;;;;;;5049197;28;20172;-66
2022/03/24 07:02:35;;;;;;;5.37;4.87;;;;;;;;;;5049372;28;20418;-66
2022/03/24 07:05:00;;;;;;;11.17;8.40;;;21.90;65.80;;;;;;5049232;28;20460;-65
2022/03/24 07:07:27;;;;;;;7.57;6.80;;;;;;;;;;5049189;28;20508;-65
2022/03/24 07:09:53;;;;;;;3.97;3.53;;;;;;;;;;5048991;28;20183;-65
2022/03/24 07:12:22;;;;;;;3.80;3.50;;;22.10;45.50;;;;;;5049320;28;20404;-65
2022/03/24 07:14:48;;;;;;;3.93;3.60;;;;;;;;;;5049035;28;20719;-65
2022/03/24 07:17:15;;;;;;;4.50;4.20;;;;;;;;;;5047567;28;20475;-65
2022/03/24 07:19:41;;;;;;;3.37;3.20;;;22.00;66.40;;;;;;5048990;28;20926;-65
2022/03/24 07:22:08;;;;;;;4.10;3.80;;;;;;;;;;5067779;28;20418;-65
2022/03/24 07:24:34;;;;;;;3.97;3.73;;;;;;;;;;5069191;28;20432;-65
2022/03/24 07:27:00;;;;;;;4.63;4.23;;;;;;;;;;5069089;28;20771;-65
2022/03/24 07:29:26;;;;;;;4.77;3.73;;;21.90;68.70;;;;;;5069076;28;20913;-66
2022/03/24 07:31:52;;;;;;;4.83;4.20;;;22.20;67.30;;;;;;5068897;28;20410;-65
2022/03/24 07:34:18;;;;;;;3.20;3.00;;;22.10;66.00;;;;;;5070755;28;20199;-65
2022/03/24 07:36:44;;;;;;;3.90;3.60;;;;;;;;;;5073035;28;20163;-65
2022/03/24 07:39:11;;;;;;;4.17;3.87;;;22.20;71.60;;;;;;5073213;28;20406;-65
2022/03/24 07:41:37;;;;;;;3.70;3.50;;;21.90;46.40;;;;;;5072947;28;20429;-65
2022/03/24 07:44:03;;;;;;;3.63;3.27;;;22.10;59.30;;;;;;5072564;28;20433;-65
2022/03/24 07:46:29;;;;;;;5.00;4.60;;;;;;;;;;5072644;28;20409;-65
2022/03/24 07:48:55;;;;;;;6.00;5.60;;;22.00;66.70;;;;;;5072623;28;20441;-65
2022/03/24 07:51:21;;;;;;;7.97;7.27;;;22.10;66.40;;;;;;5072883;28;20464;-65
2022/03/24 07:53:47;;;;;;;5.17;4.77;;;;;;;;;;5073055;28;20549;-65
2022/03/24 07:56:12;;;;;;;5.70;5.30;;;22.10;66.10;;;;;;5072983;28;20266;-65
2022/03/24 07:58:39;;;;;;;4.30;3.80;;;22.10;68.30;;;;;;5073070;28;20213;-65
2022/03/24 08:01:06;;;;;;;4.33;4.03;;;;;;;;;;5072851;28;20490;-66
2022/03/24 08:03:31;;;;;;;9.03;8.13;;;22.10;65.80;;;;;;5072875;28;20468;-65
2022/03/24 08:05:57;;;;;;;5.10;4.77;;;;;;;;;;5072932;28;20433;-65
2022/03/24 08:08:23;;;;;;;6.80;4.60;;;21.90;54.70;;;;;;5073233;28;20211;-66
2022/03/24 08:10:50;;;;;;;9.07;7.10;;;22.10;48.60;;;;;;5072694;28;20479;-65
2022/03/24 08:13:18;;;;;;;8.03;6.00;;;21.90;56.20;;;;;;5073438;28;20540;-64
2022/03/24 08:15:45;;;;;;;8.10;7.30;;;22.00;46.40;;;;;;5071343;28;20700;-64
2022/03/24 08:18:12;;;;;;;6.30;5.57;;;22.10;46.40;;;;;;5063422;28;20843;-64
2022/03/24 08:20:38;;;;;;;6.70;6.10;;;22.20;61.10;;;;;;5058812;28;20463;-65
2022/03/24 08:23:08;;;;;;;4.40;4.00;;;22.00;47.50;;;;;;5072420;28;20491;-64
2022/03/24 08:25:34;;;;;;;3.57;3.33;;;;;;;;;;5072720;28;20504;-64
2022/03/24 08:28:00;;;;;;;3.33;3.13;;;;;;;;;;5070787;28;21016;-64
2022/03/24 08:30:26;;;;;;;2.77;2.67;;;22.20;61.30;;;;;;5072115;28;20410;-65
2022/03/24 08:32:51;;;;;;;2.80;2.70;;;22.10;68.50;;;;;;5072103;28;20409;-65
2022/03/24 08:35:17;;;;;;;3.23;2.93;;;22.00;66.70;;;;;;5072300;28;20409;-64
2022/03/24 08:37:43;;;;;;;3.07;2.97;;;21.90;66.40;;;;;;5072361;28;20285;-65
2022/03/24 08:40:10;;;;;;;2.83;2.73;;;22.00;47.00;;;;;;5071828;28;20822;-64
2022/03/24 08:42:37;;;;;;;2.30;2.20;;;22.10;68.30;;;;;;5070740;28;20891;-65
2022/03/24 08:45:04;;;;;;;2.33;2.23;;;22.10;47.70;;;;;;5071070;28;20448;-64
2022/03/24 08:47:30;;;;;;;3.23;2.90;;;22.10;66.50;;;;;;5071310;28;20904;-65
2022/03/24 08:49:55;;;;;;;2.80;2.40;;;22.00;66.40;;;;;;5071702;28;20397;-64
2022/03/24 08:52:21;;;;;;;3.33;3.13;;;22.10;68.80;;;;;;5070710;28;20179;-64
2022/03/24 08:54:47;;;;;;;3.30;3.00;;;21.80;67.10;;;;;;5071670;28;20183;-64
2022/03/24 08:57:13;;;;;;;3.00;2.80;;;;;;;;;;5071387;28;20523;-64
2022/03/24 08:59:39;;;;;;;3.03;2.93;;;22.00;66.60;;;;;;5071352;28;20497;-64
2022/03/24 09:02:05;;;;;;;3.10;2.80;;;22.20;50.70;;;;;;5071385;28;20402;-65
2022/03/24 09:04:30;;;;;;;3.70;3.40;;;22.00;69.50;;;;;;5070170;28;20206;-65
2022/03/24 09:06:56;;;;;;;3.57;3.37;;;;;;;;;;5071556;28;20453;-65
2022/03/24 09:09:22;;;;;;;3.90;3.57;;;;;;;;;;5071479;28;20173;-65
2022/03/24 09:11:49;;;;;;;3.00;2.80;;;22.10;47.00;;;;;;5071252;28;20881;-64
2022/03/24 09:14:19;;;;;;;2.93;2.83;;;;;;;;;;5071252;28;20429;-65
2022/03/24 09:16:45;;;;;;;3.63;3.40;;;22.10;46.70;;;;;;5070964;28;20898;-64
2022/03/24 09:19:12;;;;;;;3.57;3.27;;;;;;;;;;5053961;28;20434;-64
2022/03/24 09:21:38;;;;;;;2.83;2.60;;;22.00;70.20;;;;;;5065775;28;20479;-64
2022/03/24 09:24:04;;;;;;;2.80;2.70;;;22.10;47.70;;;;;;5071157;28;20492;-65
2022/03/24 09:26:30;;;;;;;3.20;3.07;;;;;;;;;;5070950;28;20510;-64
2022/03/24 09:28:56;;;;;;;3.50;3.10;;;;;;;;;;5071015;28;20448;-64
2022/03/24 09:31:22;;;;;;;2.90;2.80;;;22.00;67.30;;;;;;5070817;28;20409;-65
2022/03/24 09:33:48;;;;;;;3.10;2.90;;;;;;;;;;5070823;28;20755;-64
2022/03/24 09:36:14;;;;;;;3.07;2.97;;;22.10;66.40;;;;;;5071063;28;20491;-65
2022/03/24 09:38:40;;;;;;;4.07;3.67;;;;;;;;;;5070796;28;20888;-65
2022/03/24 09:41:06;;;;;;;3.13;2.97;;;22.10;66.20;;;;;;5070879;28;20182;-65
2022/03/24 09:43:36;;;;;;;4.60;4.30;;;22.20;71.60;;;;;;5070817;28;20425;-64
2022/03/24 09:46:02;;;;;;;3.60;3.40;;;22.30;69.70;;;;;;5070635;28;20437;-64
2022/03/24 09:48:28;;;;;;;3.30;3.10;;;22.10;66.80;;;;;;5070519;28;20562;-64
2022/03/24 09:50:54;;;;;;;3.43;3.13;;;22.00;66.40;;;;;;5070421;28;20186;-66
2022/03/24 09:53:20;;;;;;;3.03;2.90;;;22.00;66.70;;;;;;5070591;28;20195;-64
2022/03/24 09:55:47;;;;;;;2.33;2.23;;;22.10;47.80;;;;;;5070599;28;20497;-65
2022/03/24 09:58:13;;;;;;;3.03;2.83;;;21.90;66.60;;;;;;5070103;28;20942;-64
2022/03/24 10:00:39;;;;;;;3.40;3.20;;;;;;;;;;5070290;28;20461;-65
2022/03/24 10:03:17;;;;;;;2.93;2.83;;;21.90;56.80;;;;;;5070542;28;20452;-64
2022/03/24 10:06:06;;;;;;;4.40;4.03;;;22.50;49.80;;;;;;5070176;28;20432;-64
2022/03/24 10:08:33;;;;;;;2.73;2.53;;;22.10;47.30;;;;;;5070208;28;20465;-65
2022/03/24 10:11:00;;;;;;;3.73;3.50;;;22.00;72.00;;;;;;5070211;28;20401;-64
2022/03/24 10:13:45;;;;;;;3.40;3.30;;;22.10;46.10;;;;;;5070095;28;20772;-65
2022/03/24 10:16:13;;;;;;;5.50;5.10;;;22.10;48.80;;;;;;5070362;28;20543;-65
2022/03/24 10:18:57;;;;;;;3.17;3.07;;;20.50;47.40;;;;;;5057647;28;20437;-64
2022/03/24 10:21:23;;;;;;;3.40;3.30;;;22.20;67.40;;;;;;5062687;28;20413;-65
2022/03/24 10:23:49;;;;;;;5.33;4.93;;;;;;;;;;5070311;28;20436;-65
2022/03/24 10:26:14;;;;;;;4.00;3.73;;;22.20;69.00;;;;;;5070533;28;20733;-64
2022/03/24 10:28:57;;;;;;;3.17;2.97;;;22.00;66.90;;;;;;5070165;28;20518;-64
2022/03/24 10:31:33;;;;;;;3.00;2.80;;;22.10;70.50;;;;;;5069989;28;20187;-64
2022/03/24 10:33:58;;;;;;;3.27;3.07;;;22.00;69.10;;;;;;5070012;28;20984;-64
2022/03/24 10:36:26;;;;;;;3.67;3.13;;;22.20;68.20;;;;;;5070254;28;20502;-64
2022/03/24 10:38:54;;;;;;;3.33;3.13;;;22.20;66.70;;;;;;5070119;28;20187;-64
2022/03/24 10:41:25;;;;;;;2.90;2.80;;;22.10;55.80;;;;;;5069954;28;20477;-64
2022/03/24 10:43:56;;;;;;;3.07;2.97;;;22.70;48.30;;;;;;5070228;28;20440;-65
2022/03/24 10:46:23;;;;;;;3.80;3.43;;;22.40;66.90;;;;;;5068664;28;20421;-65
2022/03/24 10:48:50;;;;;;;2.67;2.57;;;21.60;51.30;;;;;;5069968;28;20463;-65
2022/03/24 10:51:30;;;;;;;2.93;2.70;;;21.70;45.90;;;;;;5069809;28;20544;-65
2022/03/24 10:54:15;;;;;;;3.53;3.33;;;22.10;46.10;;;;;;5070182;28;20421;-64
2022/03/24 10:57:04;;;;;;;2.30;2.20;;;22.20;48.50;;;;;;5069775;28;20397;-64
2022/03/24 10:59:37;;;;;;;1.90;1.80;;;22.30;63.50;;;;;;5070057;28;20508;-64
2022/03/24 11:02:04;;;;;;;2.23;2.13;;;;;;;;;;5069594;28;20813;-64
2022/03/24 11:04:30;;;;;;;1.80;1.80;;;22.20;72.60;;;;;;5069707;28;20939;-67
2022/03/24 11:06:56;;;;;;;2.70;2.50;;;;;;;;;;5070239;28;20448;-64
2022/03/24 11:09:32;;;;;;;2.83;2.67;;;22.30;66.80;;;;;;5071542;28;20886;-64
2022/03/24 11:12:24;;;;;;;2.30;2.20;;;22.20;58.50;;;;;;5073819;28;20443;-64
2022/03/24 11:14:51;;;;;;;2.33;2.23;;;22.10;50.40;;;;;;5073993;28;20440;-64
2022/03/24 11:17:29;;;;;;;7.40;2.60;;;22.20;68.60;;;;;;5072453;28;20401;-64
2022/03/24 11:20:19;;;;;;;2.20;2.10;;;22.10;55.90;;;;;;5054083;28;20422;-64
2022/03/24 11:23:11;;;;;;;2.20;2.10;;;22.30;46.20;;;;;;5073775;28;20973;-64
2022/03/24 11:25:38;;;;;;;2.60;2.50;;;22.30;70.90;;;;;;5073760;28;20957;-65
2022/03/24 11:28:11;;;;;;;2.17;2.07;;;22.30;72.20;;;;;;5073460;28;20745;-64
2022/03/24 11:30:38;;;;;;;2.07;1.97;;;22.30;48.00;;;;;;5073435;28;20417;-64
2022/03/24 11:33:04;;;;;;;2.23;2.10;;;23.50;47.70;;;;;;5073431;28;20425;-64
2022/03/24 11:35:34;;;;;;;2.10;2.00;;;22.40;56.00;;;;;;5073389;28;20404;-65
2022/03/24 11:38:01;;;;;;;2.30;2.20;;;22.50;67.20;;;;;;5073410;28;20171;-64
2022/03/24 11:40:28;;;;;;;2.57;2.40;;;22.30;68.30;;;;;;5072736;28;20918;-65
2022/03/24 11:43:06;;;;;;;3.33;2.53;;;22.30;57.50;;;;;;5073277;28;20471;-64
2022/03/24 11:45:49;;;;;;;2.90;2.67;;;22.40;68.10;;;;;;5073357;28;20505;-64
2022/03/24 11:48:17;;;;;;;2.20;2.10;;;22.50;67.40;;;;;;5073241;28;20445;-65
2022/03/24 11:50:52;;;;;;;2.23;2.13;;;22.40;46.00;;;;;;5072994;28;20409;-64
2022/03/24 11:53:32;;;;;;;1.97;1.87;;;22.40;47.60;;;;;;5073310;28;20765;-65
2022/03/24 11:56:03;;;;;;;2.17;2.00;;;22.50;45.90;;;;;;5073176;28;20411;-64
2022/03/24 11:58:31;;;;;;;2.43;2.33;;;22.50;47.80;;;;;;5072790;28;20417;-64
2022/03/24 12:01:17;;;;;;;2.23;2.13;;;22.70;52.60;;;;;;5072720;28;20413;-64
2022/03/24 12:03:59;;;;;;;2.67;2.57;;;22.50;45.90;;;;;;5068428;28;20930;-64
2022/03/24 12:06:46;;;;;;;5.50;2.23;;;22.40;48.10;;;;;;5072786;28;20417;-64
2022/03/24 12:09:34;;;;;;;1.90;1.80;;;22.60;45.90;;;;;;5071144;28;20440;-64
2022/03/24 12:12:03;;;;;;;2.73;2.60;;;22.60;45.90;;;;;;5072543;28;20454;-65
2022/03/24 12:14:31;;;;;;;2.20;2.10;;;22.60;54.20;;;;;;5072636;28;20421;-64
2022/03/24 12:16:57;;;;;;;2.43;2.33;;;22.80;50.50;;;;;;5072966;28;20398;-65
2022/03/24 12:19:35;;;;;;;2.13;2.03;;;22.50;71.70;;;;;;5053412;28;20456;-64
2022/03/24 12:22:01;;;;;;;2.43;2.33;;;22.60;68.40;;;;;;5070169;28;20413;-64
2022/03/24 12:24:37;;;;;;;2.00;1.90;;;22.70;45.90;;;;;;5072299;28;20905;-64
2022/03/24 12:27:06;;;;;;;2.63;2.53;;;22.80;69.10;;;;;;5072315;28;20517;-64
2022/03/24 12:29:32;;;;;;;1.90;1.90;;;;;;;;;;5072334;28;20402;-64
2022/03/24 12:31:59;;;;;;;3.53;2.40;;;22.70;68.60;;;;;;5070874;28;20923;-64
2022/03/24 12:34:46;;;;;;;2.10;2.00;;;22.60;66.70;;;;;;5072179;28;20475;-65
2022/03/24 12:37:27;;;;;;;2.23;2.13;;;22.70;45.80;;;;;;5072346;28;20770;-64
2022/03/24 12:40:09;;;;;;;2.27;2.17;;;22.80;50.70;;;;;;5071787;28;20409;-64
2022/03/24 12:42:48;;;;;;;2.87;2.73;;;22.80;46.00;;;;;;5072037;28;20413;-65
2022/03/24 12:45:38;;;;;;;3.20;2.13;;;22.80;45.80;;;;;;5072036;28;20417;-64
2022/03/24 12:48:09;;;;;;;2.43;2.33;;;22.90;62.40;;;;;;5069179;28;20961;-64
2022/03/24 12:50:37;;;;;;;2.73;2.57;;;22.90;46.00;;;;;;5071692;28;20405;-64
2022/03/24 12:53:07;;;;;;;2.97;2.73;;;23.00;46.10;;;;;;5071754;28;20428;-64
2022/03/24 12:55:41;;;;;;;3.73;3.07;;;22.90;47.40;;;;;;5071054;28;20850;-64
2022/03/24 12:58:18;;;;;;;2.20;2.10;;;22.80;69.00;;;;;;5071682;28;20425;-64
2022/03/24 13:00:47;;;;;;;4.20;3.80;;;22.90;47.60;;;;;;5071612;28;20619;-64
2022/03/24 13:03:14;;;;;;;2.47;2.27;;;;;;;;;;5071283;28;20871;-65
2022/03/24 13:05:46;;;;;;;2.57;2.47;;;23.00;47.50;;;;;;5071959;28;20935;-64
2022/03/24 13:08:14;;;;;;;3.23;3.07;;;23.10;67.90;;;;;;5065583;28;20808;-64
2022/03/24 13:11:04;;;;;;;5.00;4.60;;;23.00;61.10;;;;;;5051153;28;20443;-64
2022/03/24 13:13:30;;;;;;;10.90;6.67;;;23.00;70.30;;;;;;5051365;28;20437;-64
2022/03/24 13:15:55;;;;;;;2.70;2.60;;;;;;;;;;5051406;28;20774;-64
2022/03/24 13:18:25;;;;;;;2.20;2.17;;;23.00;46.20;;;;;;5051034;28;20472;-64
2022/03/24 13:20:53;;;;;;;2.00;1.90;;;;;;;;;;5050961;28;20445;-64
2022/03/24 13:23:21;;;;;;;2.30;2.20;;;23.00;71.10;;;;;;5050982;28;20426;-64
2022/03/24 13:25:49;;;;;;;2.63;2.53;;;23.00;47.10;;;;;;5050992;28;20863;-64